Station: Port Augusta

  Atmospheric Gas Attenuation - ITU Rec 676-11   --------------- db/100km ---------------
Date Time Temp RH % AH g/m3 Dew Point Wind Direction Speed kph Gust kph Barometer mB Rainfall Since 9am 24GHz 47GHz 76GHz 122GHz 134GHz 241GHz
17 02:10 5.3 83 5.76 2.7 6 6 1021.2 0 13.9 24.0 32.6 84.9 70.5 239.5
17 02:00 5.4 83 5.79 2.8 6 7 1021.2 0 13.9 24.0 32.6 85.1 70.8 240.6
17 01:50 5.4 81 5.66 2.4 6 6 1021.3 0 13.6 23.8 32.1 83.7 69.1 234.5
17 01:40 6 79 5.74 2.6 7 7 1021.3 0 13.8 23.7 32.2 83.9 69.6 236.4
17 01:30 6.6 79 5.97 3.2 6 7 1021.5 0 14.3 24.0 32.9 85.8 72.1 245.3
17 01:20 6.1 82 5.99 3.3 6 7 1021.6 0 14.3 24.1 33.2 86.5 72.9 247.8
17 01:10 5.9 80 5.77 2.7 4 6 1021.7 0 13.9 23.8 32.4 84.4 70.1 238.2
17 01:00 5.8 80 5.73 2.6 4 6 1021.7 0 13.8 23.8 32.3 84.1 69.7 236.7
17 00:50 6.6 80 6.04 3.4 6 6 1021.7 0 14.4 24.1 33.2 86.5 73.1 248.6
17 00:40 6.3 81 6 3.3 9 9 1021.8 0 14.3 24.1 33.1 86.5 72.8 247.7
17 00:30 6.3 81 6 3.3 9 11 1021.9 0 14.3 24.1 33.1 86.5 72.8 247.7
17 00:20 6.5 81 6.08 3.5 11 11 1021.9 0 14.5 24.2 33.4 87.1 73.7 250.8
17 00:10 6.1 82 5.99 3.3 11 11 1021.9 0 14.3 24.1 33.2 86.6 72.9 247.9
17 00:00 6.5 81 6.08 3.5 11 13 1022 0 14.5 24.2 33.4 87.1 73.7 250.9
16 23:50 6.5 79 5.93 3.1 11 11 1022 0 14.2 23.9 32.8 85.5 71.7 243.9
16 23:40 7 79 6.12 3.6 9 9 1022 0 14.6 24.1 33.3 87.0 73.8 251.1
16 23:30 6.8 79 6.05 3.4 11 13 1022.2 0 14.4 24.1 33.1 86.5 73.0 248.6
16 23:20 7 80 6.2 3.8 13 13 1022.3 0 14.7 24.3 33.7 87.9 74.8 254.9
16 23:10 7 79 6.12 3.6 11 13 1022.4 0 14.6 24.1 33.4 87.0 73.8 251.2
16 23:00 7 78 6.05 3.4 11 15 1022.4 0 14.4 24.0 33.1 86.3 72.9 248.0
16 22:50 7.6 78 6.29 4 15 15 1022.3 0 14.9 24.2 33.8 88.2 75.5 257.2
16 22:40 7.2 79 6.2 3.8 13 15 1022.4 0 14.7 24.2 33.6 87.7 74.7 254.3
16 22:30 7.4 79 6.29 4 11 13 1022.5 0 14.9 24.3 33.9 88.4 75.7 257.8
16 22:20 7.4 79 6.29 4 11 13 1022.5 0 14.9 24.3 33.9 88.4 75.7 257.8
16 22:10 7 81 6.28 4 4 6 1022.5 0 14.9 24.4 34.0 88.8 75.9 258.7
16 22:00 7 80 6.2 3.8 7 9 1022.5 0 14.7 24.3 33.7 87.9 74.9 255.0
16 21:50 7.5 78 6.25 3.9 6 7 1022.6 0 14.8 24.2 33.7 87.9 75.0 255.7
16 21:40 8.3 74 6.24 3.9 4 6 1022.6 0 14.8 24.0 33.3 86.9 74.1 252.7
16 21:30 8.2 77 6.45 4.4 6 7 1022.7 0 15.2 24.3 34.2 89.2 77.0 262.7
16 21:20 8.2 73 6.12 3.7 0 0 1022.9 0 14.5 23.8 32.9 85.8 72.7 247.5
16 21:10 8.9 71 6.22 3.9 0 0 1022.9 0 14.7 23.8 33.0 86.1 73.3 249.9
16 21:00 9.3 71 6.38 4.3 6 6 1022.9 0 15.0 23.9 33.4 87.3 75.0 255.9
16 20:50 9.7 70 6.46 4.5 6 6 1022.9 0 15.2 24.0 33.6 87.7 75.7 258.2
16 20:40 9.5 70 6.37 4.3 6 6 1022.9 0 15.0 23.9 33.3 87.0 74.7 254.8
16 20:30 9.7 69 6.36 4.3 7 7 1022.8 0 15.0 23.8 33.2 86.6 74.4 253.7
16 20:20 9.8 67 6.22 4 7 9 1022.8 0 14.7 23.6 32.6 85.1 72.5 247.1
16 20:10 11.4 60 6.16 3.9 7 7 1022.7 0 14.5 23.1 31.7 82.8 70.3 239.5
16 20:00 11.6 58 6.03 3.6 9 11 1022.7 0 14.2 22.8 31.2 81.2 68.5 233.2
16 19:50 13.4 50 5.81 3.2 7 9 1022.6 0 13.7 22.0 29.7 77.3 64.3 218.7
16 19:40 13.5 50 5.85 3.3 9 9 1022.6 0 13.8 22.1 29.8 77.6 64.7 220.2
16 19:30 13.4 51 5.93 3.5 7 9 1022.6 0 13.9 22.2 30.1 78.5 65.7 223.8
16 19:20 11.9 59 6.25 4.2 6 7 1022.6 0 14.7 23.1 31.9 83.1 70.9 241.9
16 19:10 11.6 61 6.34 4.3 7 7 1022.5 0 14.9 23.3 32.3 84.4 72.3 246.8
16 19:00 11.5 61 6.3 4.3 4 11 1022.4 0 14.8 23.2 32.2 84.0 71.9 245.3
16 18:50 13.1 53 6.05 3.7 0 0 1022.3 0 14.2 22.4 30.7 79.9 67.4 229.7
16 18:40 13.8 51 6.08 3.9 0 0 1022.3 0 14.2 22.3 30.5 79.5 67.2 229.0
16 18:30 13.4 51 5.93 3.5 4 7 1022.2 0 13.9 22.2 30.1 78.4 65.7 223.7
16 18:20 13.5 52 6.08 3.8 7 7 1022.1 0 14.2 22.4 30.6 79.8 67.4 229.8
16 18:10 13.6 52 6.12 3.9 13 13 1022 0 14.3 22.4 30.7 80.1 67.8 231.2
16 18:00 14 50 6.03 3.8 13 15 1022 0 14.1 22.2 30.2 78.8 66.4 226.2
16 17:50 14.4 49 6.06 3.8 13 13 1021.9 0 14.2 22.1 30.2 78.7 66.4 226.4
16 17:40 15 47 6.03 3.8 13 13 1021.9 0 14.1 21.9 29.9 77.8 65.6 223.5
16 17:30 15.8 45 6.06 3.9 13 15 1021.9 0 14.1 21.8 29.7 77.3 65.3 222.5
16 17:20 17 42 6.08 4 15 15 1021.8 0 14.1 21.5 29.3 76.4 64.5 220.0
16 17:10 17.9 38 5.8 3.4 13 15 1021.8 0 13.5 20.9 28.0 73.0 60.6 206.5
16 17:00 18.7 35 5.6 2.9 17 20 1021.7 0 13.0 20.5 27.1 70.5 57.8 196.6
16 16:50 19.1 34 5.57 2.9 15 19 1021.7 0 13.0 20.4 26.9 69.8 57.2 194.5
16 16:40 19.6 33 5.57 2.9 15 17 1021.6 0 13.0 20.2 26.7 69.4 56.8 193.3
16 16:30 19.8 32 5.47 2.6 17 20 1021.6 0 12.7 20.1 26.3 68.4 55.6 189.0
16 16:20 20.1 31 5.39 2.5 19 22 1021.6 0 12.6 19.9 26.0 67.4 54.5 185.3
16 16:10 20.5 31 5.52 2.8 15 19 1021.7 0 12.8 20.0 26.3 68.2 55.7 189.3
16 16:00 20.7 31 5.58 3 15 20 1021.7 0 12.9 20.0 26.4 68.6 56.2 191.2
16 15:50 20.6 30 5.37 2.4 17 19 1021.8 0 12.5 19.8 25.7 66.9 54.0 183.4
16 15:40 20.7 29 5.22 2 15 17 1021.8 0 12.2 19.6 25.2 65.5 52.3 177.6
16 15:30 20.6 30 5.37 2.4 15 19 1021.7 0 12.5 19.8 25.7 66.8 54.0 183.4
16 15:20 20.4 29 5.13 1.8 15 19 1021.7 0 12.0 19.5 25.0 64.9 51.6 174.8
16 15:10 20.5 30 5.34 2.3 17 20 1021.7 0 12.4 19.8 25.7 66.7 53.7 182.5
16 15:00 20.7 30 5.4 2.5 17 24 1021.8 0 12.6 19.8 25.8 67.0 54.3 184.4
16 14:50 20.5 29 5.16 1.9 15 17 1021.9 0 12.1 19.5 25.1 65.1 51.8 175.8
16 14:40 20.3 30 5.28 2.2 20 22 1022 0 12.3 19.7 25.5 66.3 53.2 180.7
16 14:30 20.2 31 5.42 2.5 15 20 1022.1 0 12.6 19.9 26.0 67.6 54.8 186.3
16 14:20 20.3 30 5.28 2.2 17 20 1022.3 0 12.3 19.7 25.6 66.3 53.3 180.8
16 14:10 19.9 32 5.5 2.7 15 17 1022.5 0 12.8 20.1 26.4 68.6 55.9 190.1
16 14:00 19.7 31 5.26 2.1 15 20 1022.6 0 12.3 19.8 25.7 66.7 53.4 181.4
16 13:50 19.9 32 5.5 2.7 19 22 1022.6 0 12.8 20.1 26.4 68.6 55.9 190.1
16 13:40 19.7 32 5.43 2.6 15 17 1022.6 0 12.7 20.1 26.2 68.2 55.3 187.9
16 13:30 19.5 33 5.54 2.8 15 20 1022.7 0 12.9 20.3 26.7 69.3 56.6 192.6
16 13:20 19.6 33 5.57 2.9 13 17 1022.8 0 13.0 20.3 26.7 69.5 56.9 193.5
16 13:10 19.4 33 5.51 2.7 15 19 1023 0 12.8 20.3 26.6 69.2 56.4 191.7
16 13:00 19 35 5.7 3.2 17 22 1023.2 0 13.2 20.6 27.4 71.2 58.8 200.0
16 12:50 18.8 36 5.8 3.4 17 20 1023.4 0 13.5 20.8 27.8 72.3 60.1 204.5
16 12:40 17.9 37 5.65 3 17 20 1023.6 0 13.2 20.8 27.6 71.7 59.0 200.8
16 12:30 18.2 37 5.75 3.3 17 22 1023.9 0 13.4 20.9 27.8 72.4 60.0 204.1
16 12:20 18.2 38 5.91 3.7 15 20 1024.2 0 13.7 21.1 28.4 73.9 61.8 210.5
16 12:10 18 38 5.84 3.5 15 20 1024.5 0 13.6 21.1 28.2 73.5 61.2 208.3
16 12:00 17.5 40 5.96 3.8 15 22 1024.8 0 13.8 21.4 28.8 75.1 62.9 214.4
16 11:50 17.3 42 6.19 4.3 17 20 1025 0 14.3 21.7 29.7 77.4 65.7 224.3
16 11:40 16.8 41 5.86 3.5 13 17 1025.2 0 13.7 21.4 28.8 74.8 62.3 212.3
16 11:30 16.7 42 5.97 3.7 15 20 1025.3 0 13.9 21.6 29.2 75.9 63.7 217.0
16 11:20 16.2 44 6.07 3.9 15 17 1025.5 0 14.1 21.8 29.7 77.4 65.3 222.5
16 11:10 15.9 44 5.96 3.7 17 20 1025.7 0 13.9 21.8 29.4 76.6 64.2 218.8
16 11:00 15.7 45 6.02 3.8 15 20 1025.8 0 14.0 21.9 29.7 77.4 65.1 221.9
16 10:50 15.1 46 5.93 3.6 15 19 1025.9 0 13.9 21.9 29.6 77.1 64.5 219.8
16 10:40 14.8 47 5.95 3.6 15 20 1026 0 13.9 22.0 29.8 77.6 65.0 221.4
16 10:30 14.6 50 6.26 4.3 13 17 1026.1 0 14.6 22.5 31.0 80.8 68.9 235.1
16 10:20 14.1 52 6.31 4.4 13 13 1026.1 0 14.7 22.7 31.4 81.8 70.0 238.7
16 10:10 13.5 55 6.43 4.6 9 9 1026.1 0 15.0 23.1 32.1 83.6 72.0 245.6
16 10:00 12.6 57 6.31 4.3 9 11 1026.1 0 14.8 23.1 32.0 83.3 71.3 243.1
16 09:50 11.8 60 6.32 4.3 9 9 1026.1 0 14.8 23.3 32.3 84.3 72.1 246.0
16 09:40 11.1 60 6.04 3.6 11 13 1026 0 14.2 23.1 31.5 82.2 69.2 235.8

Last Refresh: 17-Jul-2020 02:22:15

Most of the information presented on this site is sourced from the Bureau of Meteorology.  Copyright in all material sourced from the Bureau of Meteorology resides with the Commonwealth of Australia.